createdAt,value
2019-01-29T00:02:39.488Z,256.3
2019-01-29T00:05:45.519Z,256.3
2019-01-29T00:08:51.577Z,253.4
2019-01-29T00:11:57.544Z,0
2019-01-29T00:15:03.599Z,0
2019-01-29T00:18:09.473Z,0
2019-01-29T00:21:15.414Z,0
2019-01-29T00:24:21.375Z,0
2019-01-29T00:27:30.385Z,0
2019-01-29T00:30:36.367Z,0
2019-01-29T00:33:42.240Z,0
2019-01-29T00:36:48.184Z,0
2019-01-29T00:39:54.144Z,0
2019-01-29T00:43:00.102Z,0
2019-01-29T00:46:06.175Z,0
2019-01-29T00:49:15.195Z,0
2019-01-29T00:52:21.128Z,0
2019-01-29T00:55:27.118Z,0
2019-01-29T00:58:33.126Z,0
2019-01-29T01:01:39.042Z,0
2019-01-29T01:04:44.994Z,0
2019-01-29T01:07:50.952Z,0
2019-01-29T01:10:56.913Z,0
2019-01-29T01:14:02.786Z,0
2019-01-29T01:17:08.887Z,0
2019-01-29T01:20:14.799Z,0
2019-01-29T01:23:20.752Z,0
2019-01-29T01:26:26.710Z,0
2019-01-29T01:29:32.720Z,0
2019-01-29T01:32:38.630Z,0
2019-01-29T01:35:44.504Z,0
2019-01-29T01:38:50.447Z,0
2019-01-29T01:41:56.403Z,0
2019-01-29T01:45:02.293Z,0
2019-01-29T01:48:08.311Z,0
2019-01-29T01:51:14.332Z,0
2019-01-29T01:54:20.350Z,0
2019-01-29T01:57:26.221Z,0
2019-01-29T02:00:32.158Z,0
2019-01-29T02:03:38.128Z,0
2019-01-29T02:06:44.001Z,0
2019-01-29T02:09:52.454Z,0
2019-01-29T02:12:58.454Z,0
2019-01-29T02:16:04.413Z,0
2019-01-29T02:19:10.373Z,0
2019-01-29T02:22:16.336Z,0
2019-01-29T02:25:22.290Z,0
2019-01-29T02:28:28.163Z,0
2019-01-29T02:31:34.107Z,0
2019-01-29T02:34:39.985Z,0
2019-01-29T02:37:46.037Z,0
2019-01-29T02:40:51.988Z,0
2019-01-29T02:43:58.036Z,0
2019-01-29T02:47:04.012Z,0
2019-01-29T02:50:09.968Z,0
2019-01-29T02:53:21.458Z,0
2019-01-29T02:56:27.328Z,0
2019-01-29T02:59:33.274Z,0
2019-01-29T03:02:39.238Z,0
2019-01-29T03:05:45.110Z,0
2019-01-29T03:08:51.048Z,0
2019-01-29T03:11:57.108Z,0
2019-01-29T03:15:03.379Z,0
2019-01-29T03:18:09.252Z,0
2019-01-29T03:21:15.306Z,0
2019-01-29T03:24:21.317Z,0
2019-01-29T03:27:27.189Z,0
2019-01-29T03:30:33.483Z,1.1
2019-01-29T03:33:39.439Z,1.7
2019-01-29T03:36:45.403Z,1.8
2019-01-29T03:39:51.356Z,1.8
2019-01-29T03:42:57.316Z,1.8
2019-01-29T03:46:03.334Z,115.9
2019-01-29T03:49:09.216Z,226.1
2019-01-29T03:52:15.242Z,250.6
2019-01-29T03:55:21.157Z,254.9
2019-01-29T03:58:27.094Z,256.3
2019-01-29T04:01:33.075Z,257.8
2019-01-29T04:04:39.029Z,256.3
2019-01-29T04:07:45.001Z,256.3
2019-01-29T04:10:51.447Z,256.3
2019-01-29T04:13:57.586Z,256.3
2019-01-29T04:17:03.511Z,256.3
2019-01-29T04:20:09.441Z,256.3
2019-01-29T04:23:15.397Z,256.3
2019-01-29T04:26:21.358Z,254.9
2019-01-29T04:29:27.441Z,256.3
2019-01-29T04:32:33.483Z,254.9
2019-01-29T04:35:41.699Z,254.9
2019-01-29T04:38:50.527Z,254.9
2019-01-29T04:41:56.416Z,254.9
2019-01-29T04:45:02.756Z,254.9
2019-01-29T04:48:08.707Z,254.9
2019-01-29T04:51:14.669Z,254.9
2019-01-29T04:54:20.544Z,254.9
2019-01-29T04:57:26.483Z,254.9
2019-01-29T05:00:32.443Z,254.9
2019-01-29T05:03:38.320Z,254.9
2019-01-29T05:06:44.360Z,254.9
2019-01-29T05:09:50.319Z,254.9
2019-01-29T05:12:56.288Z,254.9
2019-01-29T05:16:02.358Z,254.9
2019-01-29T05:19:08.319Z,253.4
2019-01-29T05:22:14.270Z,254.9
2019-01-29T05:25:20.535Z,253.4
2019-01-29T05:28:26.410Z,253.4
2019-01-29T05:31:32.360Z,253.4
2019-01-29T05:34:38.337Z,252
2019-01-29T05:37:44.272Z,253.4
2019-01-29T05:40:50.141Z,252
2019-01-29T05:43:56.090Z,253.4
2019-01-29T05:47:02.008Z,253.4
2019-01-29T05:50:08.008Z,253.4
2019-01-29T05:53:14.074Z,252
2019-01-29T05:56:20.030Z,253.4
2019-01-29T05:59:26.090Z,254.9
2019-01-29T06:02:31.969Z,254.9
2019-01-29T06:05:38.008Z,254.9
2019-01-29T06:08:43.965Z,253.4
2019-01-29T06:11:49.838Z,253.4
2019-01-29T06:14:55.783Z,256.3
2019-01-29T06:18:01.844Z,257.8
2019-01-29T06:21:07.981Z,256.3
2019-01-29T06:24:13.986Z,231.8
2019-01-29T06:27:30.040Z,223.2
2019-01-29T06:30:36.023Z,201.6
2019-01-29T06:33:41.984Z,256.3
2019-01-29T06:36:47.995Z,254.9
2019-01-29T06:39:58.821Z,252
2019-01-29T06:43:04.986Z,226.1
2019-01-29T06:46:10.966Z,254.9
2019-01-29T06:49:17.241Z,252
2019-01-29T06:52:23.175Z,257.8
2019-01-29T06:55:32.260Z,256.3
2019-01-29T06:58:40.316Z,250.6
2019-01-29T07:01:46.290Z,257.8
2019-01-29T07:04:52.242Z,260.6
2019-01-29T07:07:58.307Z,260.6
2019-01-29T07:11:04.254Z,262.1
2019-01-29T07:14:10.219Z,263.5
2019-01-29T07:17:16.192Z,260.6
2019-01-29T07:20:22.395Z,262.1
2019-01-29T07:23:28.592Z,262.1
2019-01-29T07:26:34.581Z,265
2019-01-29T07:29:41.430Z,265
2019-01-29T07:32:48.031Z,262.1
2019-01-29T07:35:54.092Z,266.4
2019-01-29T07:39:00.204Z,267.8
2019-01-29T07:42:06.237Z,267.8
2019-01-29T07:45:12.495Z,266.4
2019-01-29T07:48:18.757Z,269.3
2019-01-29T07:51:24.912Z,270.7
2019-01-29T07:54:36.431Z,269.3
2019-01-29T07:57:43.298Z,270.7
2019-01-29T08:00:49.310Z,270.7
2019-01-29T08:03:55.178Z,272.2
2019-01-29T08:07:01.208Z,273.6
2019-01-29T08:10:07.099Z,273.6
2019-01-29T08:13:13.114Z,273.6
2019-01-29T08:16:18.982Z,272.2
2019-01-29T08:19:25.006Z,270.7
2019-01-29T08:22:30.910Z,269.3
2019-01-29T08:25:36.816Z,269.3
2019-01-29T08:28:51.983Z,265
2019-01-29T08:31:57.948Z,263.5
2019-01-29T08:35:04.024Z,263.5
2019-01-29T08:38:10.081Z,263.5
2019-01-29T08:41:16.124Z,262.1
2019-01-29T08:44:22.477Z,262.1
2019-01-29T08:47:28.470Z,254.9
2019-01-29T08:50:35.648Z,262.1
2019-01-29T08:53:41.717Z,262.1
2019-01-29T08:56:47.674Z,263.5
2019-01-29T08:59:53.747Z,266.4
2019-01-29T09:02:59.813Z,265
2019-01-29T09:06:05.751Z,265
2019-01-29T09:09:11.921Z,262.1
2019-01-29T09:12:18.085Z,253.4
2019-01-29T09:15:24.148Z,260.6
2019-01-29T09:18:31.134Z,266.4
2019-01-29T09:21:37.424Z,263.5
2019-01-29T09:24:43.460Z,265
2019-01-29T09:27:49.620Z,263.5
2019-01-29T09:30:55.686Z,263.5
2019-01-29T09:34:01.955Z,262.1
2019-01-29T09:37:07.830Z,265
2019-01-29T09:40:13.871Z,267.8
2019-01-29T09:43:19.940Z,266.4
2019-01-29T09:46:25.995Z,266.4
2019-01-29T09:49:35.557Z,266.4
2019-01-29T09:52:41.517Z,265
2019-01-29T09:55:47.563Z,267.8
2019-01-29T09:58:53.518Z,270.7
2019-01-29T10:01:59.486Z,269.3
2019-01-29T10:05:05.443Z,269.3
2019-01-29T10:08:11.402Z,273.6
2019-01-29T10:11:17.405Z,275
2019-01-29T10:14:23.285Z,239
2019-01-29T10:17:29.396Z,273.6
2019-01-29T10:20:35.411Z,273.6
2019-01-29T10:23:41.413Z,276.5
2019-01-29T10:26:47.296Z,277.9
2019-01-29T10:29:54.322Z,279.4
2019-01-29T10:33:00.221Z,280.8
2019-01-29T10:36:06.290Z,282.2
2019-01-29T10:39:12.327Z,279.4
2019-01-29T10:42:18.289Z,279.4
2019-01-29T10:45:24.344Z,279.4
2019-01-29T10:48:30.417Z,279.4
2019-01-29T10:51:36.594Z,283.7
2019-01-29T10:54:42.542Z,283.7
2019-01-29T10:57:48.593Z,273.6
2019-01-29T11:00:54.613Z,277.9
2019-01-29T11:04:03.440Z,285.1
2019-01-29T11:07:10.598Z,283.7
2019-01-29T11:10:16.533Z,279.4
2019-01-29T11:13:22.554Z,279.4
2019-01-29T11:16:28.606Z,280.8
2019-01-29T11:19:36.319Z,279.4
2019-01-29T11:22:42.322Z,277.9
2019-01-29T11:25:56.989Z,277.9
2019-01-29T11:29:03.118Z,276.5
2019-01-29T11:32:09.288Z,277.9
2019-01-29T11:35:15.225Z,279.4
2019-01-29T11:38:21.504Z,277.9
2019-01-29T11:41:28.528Z,276.5
2019-01-29T11:44:34.481Z,270.7
2019-01-29T11:47:43.199Z,272.2
2019-01-29T11:50:49.090Z,272.2
2019-01-29T11:53:55.071Z,265
2019-01-29T11:57:01.192Z,270.7
2019-01-29T12:00:07.098Z,269.3
2019-01-29T12:03:12.967Z,253.4
2019-01-29T12:06:18.970Z,257.8
2019-01-29T12:09:25.016Z,256.3
2019-01-29T12:12:31.090Z,256.3
2019-01-29T12:15:37.152Z,256.3
2019-01-29T12:18:43.252Z,256.3
2019-01-29T12:21:49.164Z,257.8
2019-01-29T12:24:55.118Z,259.2
2019-01-29T12:28:01.385Z,259.2
2019-01-29T12:31:07.349Z,257.8
2019-01-29T12:34:13.313Z,259.2
2019-01-29T12:37:19.365Z,254.9
2019-01-29T12:40:25.242Z,256.3
2019-01-29T12:43:31.297Z,253.4
2019-01-29T12:46:38.479Z,254.9
2019-01-29T12:49:44.584Z,257.8
2019-01-29T12:52:50.597Z,252
2019-01-29T12:55:57.638Z,254.9
2019-01-29T12:59:06.842Z,254.9
2019-01-29T13:02:12.834Z,253.4
2019-01-29T13:05:18.959Z,253.4
2019-01-29T13:08:25.197Z,254.9
2019-01-29T13:11:31.275Z,253.4
2019-01-29T13:14:38.336Z,253.4
2019-01-29T13:17:44.392Z,253.4
2019-01-29T13:20:50.273Z,252
2019-01-29T13:23:56.288Z,250.6
2019-01-29T13:27:02.160Z,252
2019-01-29T13:30:08.242Z,252
2019-01-29T13:33:16.987Z,252
2019-01-29T13:36:22.959Z,252
2019-01-29T13:39:28.902Z,252
2019-01-29T13:42:34.941Z,252
2019-01-29T13:45:40.918Z,252
2019-01-29T13:48:46.810Z,252
2019-01-29T13:51:52.856Z,252
2019-01-29T13:54:58.910Z,252
2019-01-29T13:58:05.206Z,250.6
2019-01-29T14:01:11.228Z,247.7
2019-01-29T14:04:17.214Z,247.7
2019-01-29T14:07:23.255Z,249.1
2019-01-29T14:10:29.171Z,265
2019-01-29T14:13:35.174Z,266.4
2019-01-29T14:16:41.177Z,265
2019-01-29T14:19:47.192Z,265
2019-01-29T14:22:53.149Z,265
2019-01-29T14:25:59.032Z,265
2019-01-29T14:29:05.157Z,265
2019-01-29T14:32:11.116Z,265
2019-01-29T14:35:17.381Z,265
2019-01-29T14:38:23.410Z,263.5
2019-01-29T14:41:29.418Z,265
2019-01-29T14:44:35.430Z,265
2019-01-29T14:47:41.450Z,265
2019-01-29T14:50:49.653Z,265
2019-01-29T14:53:55.851Z,265
2019-01-29T14:57:02.914Z,265
2019-01-29T15:00:09.084Z,265
2019-01-29T15:03:15.138Z,265
2019-01-29T15:06:21.085Z,265
2019-01-29T15:09:36.893Z,266.4
2019-01-29T15:12:44.208Z,266.4
2019-01-29T15:15:50.440Z,266.4
2019-01-29T15:18:56.344Z,265
2019-01-29T15:22:02.359Z,265
2019-01-29T15:25:08.529Z,265
2019-01-29T15:28:14.486Z,265
2019-01-29T15:31:20.362Z,265
2019-01-29T15:34:26.398Z,262.1
2019-01-29T15:37:32.370Z,262.1
2019-01-29T15:40:38.529Z,256.3
2019-01-29T15:43:44.595Z,260.6
2019-01-29T15:46:50.657Z,262.1
2019-01-29T15:49:56.733Z,263.5
2019-01-29T15:53:02.787Z,263.5
2019-01-29T15:56:08.737Z,254.9
2019-01-29T15:59:14.807Z,265
2019-01-29T16:02:20.858Z,262.1
2019-01-29T16:05:27.108Z,262.1
2019-01-29T16:08:33.029Z,263.5
2019-01-29T16:11:40.715Z,263.5
2019-01-29T16:14:46.889Z,265
2019-01-29T16:17:52.921Z,265
2019-01-29T16:20:58.987Z,263.5
2019-01-29T16:24:05.148Z,266.4
2019-01-29T16:27:11.008Z,265
2019-01-29T16:30:16.978Z,266.4
2019-01-29T16:33:22.913Z,265
2019-01-29T16:36:28.870Z,263.5
2019-01-29T16:39:34.807Z,265
2019-01-29T16:42:40.782Z,265
2019-01-29T16:45:46.747Z,266.4
2019-01-29T16:48:52.803Z,263.5
2019-01-29T16:51:58.684Z,263.5
2019-01-29T16:55:04.725Z,265
2019-01-29T16:58:10.701Z,265
2019-01-29T17:01:16.750Z,263.5
2019-01-29T17:04:22.688Z,265
2019-01-29T17:07:32.260Z,259.2
2019-01-29T17:10:41.093Z,266.4
2019-01-29T17:13:47.042Z,265
2019-01-29T17:16:52.917Z,260.6
2019-01-29T17:20:00.915Z,260.6
2019-01-29T17:23:06.965Z,252
2019-01-29T17:26:12.959Z,260.6
2019-01-29T17:29:21.982Z,263.5
2019-01-29T17:32:33.446Z,263.5
2019-01-29T17:35:39.406Z,263.5
2019-01-29T17:38:47.719Z,263.5
2019-01-29T17:41:53.599Z,263.5
2019-01-29T17:44:59.543Z,263.5
2019-01-29T17:48:05.579Z,263.5
2019-01-29T17:51:11.559Z,265
2019-01-29T17:54:17.438Z,265
2019-01-29T17:57:23.375Z,263.5
2019-01-29T18:00:29.346Z,263.5
2019-01-29T18:03:35.223Z,265
2019-01-29T18:06:41.358Z,263.5
2019-01-29T18:09:47.537Z,265
2019-01-29T18:12:53.399Z,263.5
2019-01-29T18:15:59.337Z,265
2019-01-29T18:19:05.296Z,263.5
2019-01-29T18:22:11.284Z,265
2019-01-29T18:25:17.210Z,266.4
2019-01-29T18:28:23.087Z,265
2019-01-29T18:31:29.037Z,265
2019-01-29T18:34:35.102Z,265
2019-01-29T18:37:43.905Z,266.4
2019-01-29T18:40:49.958Z,266.4
2019-01-29T18:43:55.985Z,266.4
2019-01-29T18:47:01.871Z,266.4
2019-01-29T18:50:07.861Z,266.4
2019-01-29T18:53:13.817Z,2.7
2019-01-29T18:56:22.910Z,2.7
2019-01-29T18:59:28.782Z,2.7
2019-01-29T19:02:34.871Z,2.7
2019-01-29T19:05:40.829Z,2.7
2019-01-29T19:08:46.912Z,2.7
2019-01-29T19:11:52.840Z,2.7
2019-01-29T19:15:01.602Z,2.7
2019-01-29T19:18:07.636Z,2.7
2019-01-29T19:21:13.518Z,2.7
2019-01-29T19:24:19.456Z,2.7
2019-01-29T19:27:25.519Z,2.7
2019-01-29T19:30:31.484Z,2.7
2019-01-29T19:33:37.633Z,2.7
2019-01-29T19:36:43.507Z,2.7
2019-01-29T19:39:49.463Z,2.7
2019-01-29T19:42:55.398Z,2.7
2019-01-29T19:46:01.377Z,167
2019-01-29T19:49:07.386Z,246.2
2019-01-29T19:52:13.396Z,0
2019-01-29T19:55:19.353Z,0
2019-01-29T19:58:35.037Z,0
2019-01-29T20:01:41.003Z,0
2019-01-29T20:04:46.993Z,0
2019-01-29T20:07:52.924Z,0
2019-01-29T20:10:59.017Z,0
2019-01-29T20:14:07.864Z,0
2019-01-29T20:17:13.747Z,0
2019-01-29T20:20:21.987Z,0
2019-01-29T20:23:27.944Z,0
2019-01-29T20:26:34.008Z,0
2019-01-29T20:29:39.965Z,0
2019-01-29T20:32:56.317Z,0
2019-01-29T20:36:02.328Z,0
2019-01-29T20:39:08.396Z,0
2019-01-29T20:42:14.455Z,0
2019-01-29T20:45:20.338Z,0
2019-01-29T20:48:26.271Z,0
2019-01-29T20:51:32.231Z,0
2019-01-29T20:54:38.248Z,0
2019-01-29T20:57:44.157Z,0
2019-01-29T21:00:50.215Z,0
2019-01-29T21:03:56.094Z,0
2019-01-29T21:07:02.135Z,0
2019-01-29T21:10:08.005Z,0
2019-01-29T21:13:14.049Z,0
2019-01-29T21:16:19.927Z,0
2019-01-29T21:19:25.866Z,0
2019-01-29T21:22:31.878Z,0
2019-01-29T21:25:37.837Z,0
2019-01-29T21:28:43.714Z,0
2019-01-29T21:31:49.706Z,0
2019-01-29T21:34:56.570Z,0
2019-01-29T21:38:02.547Z,0
2019-01-29T21:41:08.607Z,0
2019-01-29T21:44:17.365Z,0
2019-01-29T21:47:23.294Z,0
2019-01-29T21:50:29.361Z,0
2019-01-29T21:53:35.314Z,0
2019-01-29T21:56:41.188Z,0
2019-01-29T21:59:50.202Z,0
2019-01-29T22:02:56.171Z,0
2019-01-29T22:06:02.231Z,0
2019-01-29T22:09:08.190Z,0
2019-01-29T22:12:14.124Z,0
2019-01-29T22:15:20.107Z,0
2019-01-29T22:18:26.169Z,0
2019-01-29T22:21:32.104Z,0
2019-01-29T22:24:38.087Z,0
2019-01-29T22:27:43.959Z,0
2019-01-29T22:30:50.007Z,0
2019-01-29T22:33:55.879Z,0
2019-01-29T22:37:01.821Z,0
2019-01-29T22:40:07.882Z,0
2019-01-29T22:43:13.845Z,0
2019-01-29T22:46:19.902Z,0
2019-01-29T22:49:25.775Z,0
2019-01-29T22:52:31.721Z,0
2019-01-29T22:55:37.680Z,0
2019-01-29T22:58:43.640Z,0
2019-01-29T23:01:49.600Z,0
2019-01-29T23:04:55.474Z,0
2019-01-29T23:08:01.605Z,0
2019-01-29T23:11:10.362Z,0
2019-01-29T23:14:16.311Z,0
2019-01-29T23:17:22.272Z,0
2019-01-29T23:20:28.234Z,0
2019-01-29T23:23:34.187Z,0
2019-01-29T23:26:40.147Z,0
2019-01-29T23:29:46.821Z,0
2019-01-29T23:32:52.780Z,0
2019-01-29T23:35:58.850Z,0
2019-01-29T23:39:04.807Z,0
2019-01-29T23:42:10.767Z,0
2019-01-29T23:45:16.641Z,0
2019-01-29T23:48:22.692Z,0
2019-01-29T23:51:28.643Z,0
2019-01-29T23:54:34.579Z,0
2019-01-29T23:57:40.563Z,0
